sensor_id;sensor_type;location;lat;lon;timestamp;P1;durP1;ratioP1;P2;durP2;ratioP2
23310;SDS011;11828;51.508;18.118;2022-12-18T00:01:19;41.22;;;18.15;;
23310;SDS011;11828;51.508;18.118;2022-12-18T00:03:51;41.17;;;18.38;;
23310;SDS011;11828;51.508;18.118;2022-12-18T00:06:18;45.40;;;18.60;;
23310;SDS011;11828;51.508;18.118;2022-12-18T00:08:45;44.72;;;18.38;;
23310;SDS011;11828;51.508;18.118;2022-12-18T00:11:16;44.75;;;18.08;;
23310;SDS011;11828;51.508;18.118;2022-12-18T00:13:45;41.28;;;17.13;;
23310;SDS011;11828;51.508;18.118;2022-12-18T00:16:15;45.28;;;18.67;;
23310;SDS011;11828;51.508;18.118;2022-12-18T00:18:46;44.33;;;18.20;;
23310;SDS011;11828;51.508;18.118;2022-12-18T00:21:17;48.28;;;18.85;;
23310;SDS011;11828;51.508;18.118;2022-12-18T00:23:44;49.03;;;19.17;;
23310;SDS011;11828;51.508;18.118;2022-12-18T00:26:19;45.20;;;17.92;;
23310;SDS011;11828;51.508;18.118;2022-12-18T00:28:47;46.50;;;18.38;;
23310;SDS011;11828;51.508;18.118;2022-12-18T00:31:16;42.08;;;18.42;;
23310;SDS011;11828;51.508;18.118;2022-12-18T00:33:45;44.75;;;18.17;;
23310;SDS011;11828;51.508;18.118;2022-12-18T00:36:12;43.55;;;17.70;;
23310;SDS011;11828;51.508;18.118;2022-12-18T00:38:42;45.47;;;18.30;;
23310;SDS011;11828;51.508;18.118;2022-12-18T00:41:09;49.97;;;19.55;;
23310;SDS011;11828;51.508;18.118;2022-12-18T00:43:37;45.92;;;19.42;;
23310;SDS011;11828;51.508;18.118;2022-12-18T00:46:04;41.90;;;16.92;;
23310;SDS011;11828;51.508;18.118;2022-12-18T00:48:31;45.80;;;19.27;;
23310;SDS011;11828;51.508;18.118;2022-12-18T00:50:58;43.33;;;17.33;;
23310;SDS011;11828;51.508;18.118;2022-12-18T00:53:23;47.45;;;19.50;;
23310;SDS011;11828;51.508;18.118;2022-12-18T00:55:50;44.67;;;17.92;;
23310;SDS011;11828;51.508;18.118;2022-12-18T00:58:16;41.25;;;17.70;;
23310;SDS011;11828;51.508;18.118;2022-12-18T01:00:42;45.25;;;17.30;;
23310;SDS011;11828;51.508;18.118;2022-12-18T01:03:09;44.03;;;18.00;;
23310;SDS011;11828;51.508;18.118;2022-12-18T01:05:39;47.15;;;18.75;;
23310;SDS011;11828;51.508;18.118;2022-12-18T01:08:07;48.15;;;20.02;;
23310;SDS011;11828;51.508;18.118;2022-12-18T01:10:33;47.08;;;18.27;;
23310;SDS011;11828;51.508;18.118;2022-12-18T01:12:59;46.20;;;18.58;;
23310;SDS011;11828;51.508;18.118;2022-12-18T01:15:25;50.40;;;19.50;;
23310;SDS011;11828;51.508;18.118;2022-12-18T01:17:52;49.45;;;19.30;;
23310;SDS011;11828;51.508;18.118;2022-12-18T01:20:19;49.33;;;18.95;;
23310;SDS011;11828;51.508;18.118;2022-12-18T01:22:45;50.22;;;19.27;;
23310;SDS011;11828;51.508;18.118;2022-12-18T01:25:11;52.78;;;18.80;;
23310;SDS011;11828;51.508;18.118;2022-12-18T01:27:37;48.88;;;18.38;;
23310;SDS011;11828;51.508;18.118;2022-12-18T01:30:03;47.38;;;17.70;;
23310;SDS011;11828;51.508;18.118;2022-12-18T01:32:30;49.90;;;18.88;;
23310;SDS011;11828;51.508;18.118;2022-12-18T01:34:58;47.00;;;17.90;;
23310;SDS011;11828;51.508;18.118;2022-12-18T01:37:24;47.38;;;17.85;;
23310;SDS011;11828;51.508;18.118;2022-12-18T01:39:51;50.65;;;18.20;;
23310;SDS011;11828;51.508;18.118;2022-12-18T01:42:19;50.97;;;19.17;;
23310;SDS011;11828;51.508;18.118;2022-12-18T01:52:48;47.50;;;17.75;;
23310;SDS011;11828;51.508;18.118;2022-12-18T01:55:26;54.58;;;19.17;;
23310;SDS011;11828;51.508;18.118;2022-12-18T01:57:57;46.28;;;17.25;;
23310;SDS011;11828;51.508;18.118;2022-12-18T02:00:25;47.03;;;16.83;;
23310;SDS011;11828;51.508;18.118;2022-12-18T02:02:52;43.95;;;16.52;;
23310;SDS011;11828;51.508;18.118;2022-12-18T02:05:43;48.97;;;17.30;;
23310;SDS011;11828;51.508;18.118;2022-12-18T02:08:29;45.63;;;17.25;;
23310;SDS011;11828;51.508;18.118;2022-12-18T02:11:39;46.13;;;16.60;;
23310;SDS011;11828;51.508;18.118;2022-12-18T02:14:33;45.47;;;16.15;;
23310;SDS011;11828;51.508;18.118;2022-12-18T02:28:34;46.10;;;16.52;;
23310;SDS011;11828;51.508;18.118;2022-12-18T02:31:07;47.05;;;16.88;;
23310;SDS011;11828;51.508;18.118;2022-12-18T02:33:37;39.60;;;15.43;;
23310;SDS011;11828;51.508;18.118;2022-12-18T02:36:05;42.63;;;16.42;;
23310;SDS011;11828;51.508;18.118;2022-12-18T02:38:33;46.28;;;17.25;;
23310;SDS011;11828;51.508;18.118;2022-12-18T02:41:00;41.85;;;17.15;;
23310;SDS011;11828;51.508;18.118;2022-12-18T02:43:27;47.20;;;16.75;;
23310;SDS011;11828;51.508;18.118;2022-12-18T02:45:58;46.38;;;16.88;;
23310;SDS011;11828;51.508;18.118;2022-12-18T02:48:32;52.38;;;18.67;;
23310;SDS011;11828;51.508;18.118;2022-12-18T02:51:03;48.63;;;17.13;;
23310;SDS011;11828;51.508;18.118;2022-12-18T02:53:58;42.35;;;16.10;;
23310;SDS011;11828;51.508;18.118;2022-12-18T02:56:51;42.38;;;15.65;;
23310;SDS011;11828;51.508;18.118;2022-12-18T02:59:23;46.58;;;17.27;;
23310;SDS011;11828;51.508;18.118;2022-12-18T03:02:26;44.47;;;16.65;;
23310;SDS011;11828;51.508;18.118;2022-12-18T03:05:27;39.45;;;14.32;;
23310;SDS011;11828;51.508;18.118;2022-12-18T03:08:18;41.17;;;14.40;;
23310;SDS011;11828;51.508;18.118;2022-12-18T03:11:02;37.63;;;14.13;;
23310;SDS011;11828;51.508;18.118;2022-12-18T03:13:31;39.78;;;14.52;;
23310;SDS011;11828;51.508;18.118;2022-12-18T03:16:07;42.22;;;14.90;;
23310;SDS011;11828;51.508;18.118;2022-12-18T03:18:44;39.92;;;15.05;;
23310;SDS011;11828;51.508;18.118;2022-12-18T03:21:21;41.83;;;15.63;;
23310;SDS011;11828;51.508;18.118;2022-12-18T03:24:18;41.30;;;15.85;;
23310;SDS011;11828;51.508;18.118;2022-12-18T03:26:49;42.05;;;15.35;;
23310;SDS011;11828;51.508;18.118;2022-12-18T03:29:21;40.20;;;15.32;;
23310;SDS011;11828;51.508;18.118;2022-12-18T03:31:53;40.17;;;15.52;;
23310;SDS011;11828;51.508;18.118;2022-12-18T03:34:29;41.55;;;14.98;;
23310;SDS011;11828;51.508;18.118;2022-12-18T03:36:58;39.78;;;15.40;;
23310;SDS011;11828;51.508;18.118;2022-12-18T03:39:27;43.10;;;15.95;;
23310;SDS011;11828;51.508;18.118;2022-12-18T03:47:52;37.08;;;15.00;;
23310;SDS011;11828;51.508;18.118;2022-12-18T03:51:16;48.42;;;16.88;;
23310;SDS011;11828;51.508;18.118;2022-12-18T03:53:28;39.95;;;15.35;;
23310;SDS011;11828;51.508;18.118;2022-12-18T03:56:16;41.55;;;15.38;;
23310;SDS011;11828;51.508;18.118;2022-12-18T03:58:44;42.38;;;15.35;;
23310;SDS011;11828;51.508;18.118;2022-12-18T04:01:13;41.30;;;15.48;;
23310;SDS011;11828;51.508;18.118;2022-12-18T04:03:42;45.17;;;16.08;;
23310;SDS011;11828;51.508;18.118;2022-12-18T04:06:10;41.83;;;15.50;;
23310;SDS011;11828;51.508;18.118;2022-12-18T04:08:37;42.90;;;15.65;;
23310;SDS011;11828;51.508;18.118;2022-12-18T04:11:05;40.65;;;15.38;;
23310;SDS011;11828;51.508;18.118;2022-12-18T04:13:32;36.97;;;15.32;;
23310;SDS011;11828;51.508;18.118;2022-12-18T04:16:02;38.65;;;14.90;;
23310;SDS011;11828;51.508;18.118;2022-12-18T04:18:29;45.47;;;14.73;;
23310;SDS011;11828;51.508;18.118;2022-12-18T04:20:55;42.65;;;16.15;;
23310;SDS011;11828;51.508;18.118;2022-12-18T04:23:22;45.17;;;16.08;;
23310;SDS011;11828;51.508;18.118;2022-12-18T04:25:48;44.53;;;15.77;;
23310;SDS011;11828;51.508;18.118;2022-12-18T04:28:14;43.42;;;15.52;;
23310;SDS011;11828;51.508;18.118;2022-12-18T04:30:40;42.65;;;16.20;;
23310;SDS011;11828;51.508;18.118;2022-12-18T04:33:12;41.38;;;15.90;;
23310;SDS011;11828;51.508;18.118;2022-12-18T04:35:41;42.03;;;14.88;;
23310;SDS011;11828;51.508;18.118;2022-12-18T04:38:08;46.35;;;14.82;;
23310;SDS011;11828;51.508;18.118;2022-12-18T04:40:35;38.80;;;15.55;;
23310;SDS011;11828;51.508;18.118;2022-12-18T04:43:02;42.10;;;14.38;;
23310;SDS011;11828;51.508;18.118;2022-12-18T04:45:32;41.65;;;15.18;;
23310;SDS011;11828;51.508;18.118;2022-12-18T04:47:59;41.75;;;16.23;;
23310;SDS011;11828;51.508;18.118;2022-12-18T04:50:26;41.78;;;16.40;;
23310;SDS011;11828;51.508;18.118;2022-12-18T04:52:54;41.88;;;15.10;;
23310;SDS011;11828;51.508;18.118;2022-12-18T04:55:20;40.92;;;13.43;;
23310;SDS011;11828;51.508;18.118;2022-12-18T04:57:47;36.75;;;14.13;;
23310;SDS011;11828;51.508;18.118;2022-12-18T05:00:13;35.58;;;14.73;;
23310;SDS011;11828;51.508;18.118;2022-12-18T05:02:39;41.25;;;14.80;;
23310;SDS011;11828;51.508;18.118;2022-12-18T05:05:05;44.97;;;15.32;;
23310;SDS011;11828;51.508;18.118;2022-12-18T05:07:32;42.03;;;14.98;;
23310;SDS011;11828;51.508;18.118;2022-12-18T05:09:58;40.80;;;15.23;;
23310;SDS011;11828;51.508;18.118;2022-12-18T05:12:25;38.65;;;15.10;;
23310;SDS011;11828;51.508;18.118;2022-12-18T05:14:51;41.80;;;14.82;;
23310;SDS011;11828;51.508;18.118;2022-12-18T05:17:17;41.92;;;14.55;;
23310;SDS011;11828;51.508;18.118;2022-12-18T05:19:43;42.42;;;14.88;;
23310;SDS011;11828;51.508;18.118;2022-12-18T05:22:10;41.15;;;15.15;;
23310;SDS011;11828;51.508;18.118;2022-12-18T05:24:37;39.53;;;14.38;;
23310;SDS011;11828;51.508;18.118;2022-12-18T05:27:03;45.03;;;16.38;;
23310;SDS011;11828;51.508;18.118;2022-12-18T05:29:29;41.15;;;15.40;;
23310;SDS011;11828;51.508;18.118;2022-12-18T05:31:55;37.40;;;14.20;;
23310;SDS011;11828;51.508;18.118;2022-12-18T05:34:21;43.72;;;15.95;;
23310;SDS011;11828;51.508;18.118;2022-12-18T05:36:47;41.17;;;15.02;;
23310;SDS011;11828;51.508;18.118;2022-12-18T05:39:13;42.03;;;14.02;;
23310;SDS011;11828;51.508;18.118;2022-12-18T05:41:40;37.95;;;14.20;;
23310;SDS011;11828;51.508;18.118;2022-12-18T05:44:06;46.30;;;15.63;;
23310;SDS011;11828;51.508;18.118;2022-12-18T05:46:32;72.75;;;24.70;;
23310;SDS011;11828;51.508;18.118;2022-12-18T05:49:01;74.53;;;27.25;;
23310;SDS011;11828;51.508;18.118;2022-12-18T05:51:27;49.30;;;18.20;;
23310;SDS011;11828;51.508;18.118;2022-12-18T05:53:53;47.72;;;16.50;;
23310;SDS011;11828;51.508;18.118;2022-12-18T05:56:20;44.45;;;14.65;;
23310;SDS011;11828;51.508;18.118;2022-12-18T05:58:50;46.03;;;16.63;;
23310;SDS011;11828;51.508;18.118;2022-12-18T06:01:20;51.83;;;17.52;;
23310;SDS011;11828;51.508;18.118;2022-12-18T06:03:50;61.60;;;19.83;;
23310;SDS011;11828;51.508;18.118;2022-12-18T06:06:18;93.72;;;31.40;;
23310;SDS011;11828;51.508;18.118;2022-12-18T06:08:47;57.97;;;20.55;;
23310;SDS011;11828;51.508;18.118;2022-12-18T06:11:24;61.63;;;21.02;;
23310;SDS011;11828;51.508;18.118;2022-12-18T06:13:52;61.47;;;19.27;;
23310;SDS011;11828;51.508;18.118;2022-12-18T06:16:20;57.95;;;19.52;;
23310;SDS011;11828;51.508;18.118;2022-12-18T06:18:46;53.72;;;19.50;;
23310;SDS011;11828;51.508;18.118;2022-12-18T06:21:13;49.15;;;17.02;;
23310;SDS011;11828;51.508;18.118;2022-12-18T06:23:38;45.35;;;16.80;;
23310;SDS011;11828;51.508;18.118;2022-12-18T06:26:08;44.33;;;16.10;;
23310;SDS011;11828;51.508;18.118;2022-12-18T06:28:36;44.65;;;16.60;;
23310;SDS011;11828;51.508;18.118;2022-12-18T06:31:03;45.92;;;16.83;;
23310;SDS011;11828;51.508;18.118;2022-12-18T06:33:30;46.05;;;17.63;;
23310;SDS011;11828;51.508;18.118;2022-12-18T06:36:04;47.85;;;16.58;;
23310;SDS011;11828;51.508;18.118;2022-12-18T06:38:34;44.65;;;16.23;;
23310;SDS011;11828;51.508;18.118;2022-12-18T06:41:08;48.10;;;15.90;;
23310;SDS011;11828;51.508;18.118;2022-12-18T06:43:40;44.42;;;16.48;;
23310;SDS011;11828;51.508;18.118;2022-12-18T06:46:07;48.97;;;16.90;;
23310;SDS011;11828;51.508;18.118;2022-12-18T06:48:34;50.65;;;17.15;;
23310;SDS011;11828;51.508;18.118;2022-12-18T06:51:00;44.78;;;16.77;;
23310;SDS011;11828;51.508;18.118;2022-12-18T06:53:27;42.95;;;15.73;;
23310;SDS011;11828;51.508;18.118;2022-12-18T06:56:01;44.22;;;16.15;;
23310;SDS011;11828;51.508;18.118;2022-12-18T06:58:29;42.40;;;16.60;;
23310;SDS011;11828;51.508;18.118;2022-12-18T07:01:02;46.05;;;17.48;;
23310;SDS011;11828;51.508;18.118;2022-12-18T07:03:30;48.95;;;16.88;;
23310;SDS011;11828;51.508;18.118;2022-12-18T07:05:57;47.17;;;16.95;;
23310;SDS011;11828;51.508;18.118;2022-12-18T07:08:24;49.20;;;17.55;;
23310;SDS011;11828;51.508;18.118;2022-12-18T07:10:50;59.05;;;20.20;;
23310;SDS011;11828;51.508;18.118;2022-12-18T07:13:16;65.88;;;22.60;;
23310;SDS011;11828;51.508;18.118;2022-12-18T07:15:43;59.25;;;21.52;;
23310;SDS011;11828;51.508;18.118;2022-12-18T07:18:09;45.13;;;17.00;;
23310;SDS011;11828;51.508;18.118;2022-12-18T07:20:36;49.58;;;16.83;;
23310;SDS011;11828;51.508;18.118;2022-12-18T07:23:02;38.90;;;15.20;;
23310;SDS011;11828;51.508;18.118;2022-12-18T07:25:39;48.05;;;15.88;;
23310;SDS011;11828;51.508;18.118;2022-12-18T07:28:06;49.08;;;16.15;;
23310;SDS011;11828;51.508;18.118;2022-12-18T07:30:32;44.22;;;15.20;;
23310;SDS011;11828;51.508;18.118;2022-12-18T07:32:59;45.45;;;16.27;;
23310;SDS011;11828;51.508;18.118;2022-12-18T07:35:25;46.90;;;16.25;;
23310;SDS011;11828;51.508;18.118;2022-12-18T07:37:51;41.47;;;15.98;;
23310;SDS011;11828;51.508;18.118;2022-12-18T07:40:17;45.20;;;15.80;;
23310;SDS011;11828;51.508;18.118;2022-12-18T07:42:44;60.45;;;21.35;;
23310;SDS011;11828;51.508;18.118;2022-12-18T07:45:10;63.38;;;21.38;;
23310;SDS011;11828;51.508;18.118;2022-12-18T07:47:36;65.10;;;21.95;;
23310;SDS011;11828;51.508;18.118;2022-12-18T07:50:03;61.83;;;20.35;;
23310;SDS011;11828;51.508;18.118;2022-12-18T07:52:29;58.17;;;20.25;;
23310;SDS011;11828;51.508;18.118;2022-12-18T07:54:56;91.47;;;34.75;;
23310;SDS011;11828;51.508;18.118;2022-12-18T07:57:22;65.97;;;25.67;;
23310;SDS011;11828;51.508;18.118;2022-12-18T07:59:48;48.67;;;18.92;;
23310;SDS011;11828;51.508;18.118;2022-12-18T08:02:14;44.47;;;17.33;;
23310;SDS011;11828;51.508;18.118;2022-12-18T08:04:40;42.03;;;15.90;;
23310;SDS011;11828;51.508;18.118;2022-12-18T08:07:06;38.47;;;14.30;;
23310;SDS011;11828;51.508;18.118;2022-12-18T08:09:32;38.67;;;14.63;;
23310;SDS011;11828;51.508;18.118;2022-12-18T08:11:58;41.45;;;14.60;;
23310;SDS011;11828;51.508;18.118;2022-12-18T08:14:24;46.72;;;16.13;;
23310;SDS011;11828;51.508;18.118;2022-12-18T08:16:50;44.75;;;15.95;;
23310;SDS011;11828;51.508;18.118;2022-12-18T08:19:17;49.72;;;16.80;;
23310;SDS011;11828;51.508;18.118;2022-12-18T08:21:43;41.05;;;15.10;;
23310;SDS011;11828;51.508;18.118;2022-12-18T08:24:09;46.30;;;17.13;;
23310;SDS011;11828;51.508;18.118;2022-12-18T08:26:36;46.20;;;17.02;;
23310;SDS011;11828;51.508;18.118;2022-12-18T08:29:02;44.50;;;16.55;;
23310;SDS011;11828;51.508;18.118;2022-12-18T08:31:29;45.47;;;16.05;;
23310;SDS011;11828;51.508;18.118;2022-12-18T08:33:56;37.28;;;13.70;;
23310;SDS011;11828;51.508;18.118;2022-12-18T08:36:22;36.72;;;13.90;;
23310;SDS011;11828;51.508;18.118;2022-12-18T08:38:49;34.55;;;13.70;;
23310;SDS011;11828;51.508;18.118;2022-12-18T08:41:16;38.25;;;13.93;;
23310;SDS011;11828;51.508;18.118;2022-12-18T08:43:43;40.33;;;14.77;;
23310;SDS011;11828;51.508;18.118;2022-12-18T08:46:32;41.15;;;14.15;;
23310;SDS011;11828;51.508;18.118;2022-12-18T08:49:01;36.55;;;13.80;;
23310;SDS011;11828;51.508;18.118;2022-12-18T08:51:27;37.28;;;14.55;;
23310;SDS011;11828;51.508;18.118;2022-12-18T08:53:53;39.20;;;14.82;;
23310;SDS011;11828;51.508;18.118;2022-12-18T08:56:19;49.53;;;18.30;;
23310;SDS011;11828;51.508;18.118;2022-12-18T08:58:45;82.85;;;29.40;;
23310;SDS011;11828;51.508;18.118;2022-12-18T09:01:11;58.70;;;21.52;;
23310;SDS011;11828;51.508;18.118;2022-12-18T09:03:39;47.55;;;18.55;;
23310;SDS011;11828;51.508;18.118;2022-12-18T09:06:05;57.17;;;21.40;;
23310;SDS011;11828;51.508;18.118;2022-12-18T09:08:35;49.10;;;17.50;;
23310;SDS011;11828;51.508;18.118;2022-12-18T09:11:02;34.88;;;13.63;;
23310;SDS011;11828;51.508;18.118;2022-12-18T09:13:28;38.63;;;14.40;;
23310;SDS011;11828;51.508;18.118;2022-12-18T09:15:54;39.25;;;15.93;;
23310;SDS011;11828;51.508;18.118;2022-12-18T09:18:21;41.42;;;14.68;;
23310;SDS011;11828;51.508;18.118;2022-12-18T09:20:48;34.47;;;14.27;;
23310;SDS011;11828;51.508;18.118;2022-12-18T09:23:17;185.90;;;53.60;;
23310;SDS011;11828;51.508;18.118;2022-12-18T09:25:43;131.75;;;40.53;;
23310;SDS011;11828;51.508;18.118;2022-12-18T09:28:11;134.30;;;42.05;;
23310;SDS011;11828;51.508;18.118;2022-12-18T09:30:43;108.28;;;33.92;;
23310;SDS011;11828;51.508;18.118;2022-12-18T09:33:12;48.63;;;18.27;;
23310;SDS011;11828;51.508;18.118;2022-12-18T09:35:39;34.88;;;14.38;;
23310;SDS011;11828;51.508;18.118;2022-12-18T09:38:07;34.42;;;13.82;;
23310;SDS011;11828;51.508;18.118;2022-12-18T09:40:47;32.05;;;13.65;;
23310;SDS011;11828;51.508;18.118;2022-12-18T09:43:35;33.58;;;13.88;;
23310;SDS011;11828;51.508;18.118;2022-12-18T09:46:10;38.08;;;15.23;;
23310;SDS011;11828;51.508;18.118;2022-12-18T09:48:48;42.22;;;16.00;;
23310;SDS011;11828;51.508;18.118;2022-12-18T09:51:26;56.60;;;21.80;;
23310;SDS011;11828;51.508;18.118;2022-12-18T09:54:03;44.80;;;17.30;;
23310;SDS011;11828;51.508;18.118;2022-12-18T09:56:35;50.80;;;17.80;;
23310;SDS011;11828;51.508;18.118;2022-12-18T09:59:04;83.55;;;30.80;;
23310;SDS011;11828;51.508;18.118;2022-12-18T10:01:31;51.72;;;19.10;;
23310;SDS011;11828;51.508;18.118;2022-12-18T10:03:58;44.10;;;19.00;;
23310;SDS011;11828;51.508;18.118;2022-12-18T10:20:16;47.70;;;19.63;;
23310;SDS011;11828;51.508;18.118;2022-12-18T10:22:57;45.15;;;18.20;;
23310;SDS011;11828;51.508;18.118;2022-12-18T10:28:23;99.90;;;38.60;;
23310;SDS011;11828;51.508;18.118;2022-12-18T10:30:51;57.53;;;23.73;;
23310;SDS011;11828;51.508;18.118;2022-12-18T10:33:18;45.88;;;19.33;;
23310;SDS011;11828;51.508;18.118;2022-12-18T10:35:51;51.20;;;19.15;;
23310;SDS011;11828;51.508;18.118;2022-12-18T10:40:49;53.65;;;19.70;;
23310;SDS011;11828;51.508;18.118;2022-12-18T10:46:12;52.85;;;20.58;;
23310;SDS011;11828;51.508;18.118;2022-12-18T10:54:03;58.60;;;22.42;;
23310;SDS011;11828;51.508;18.118;2022-12-18T10:56:31;73.05;;;26.45;;
23310;SDS011;11828;51.508;18.118;2022-12-18T10:59:01;76.30;;;29.60;;
23310;SDS011;11828;51.508;18.118;2022-12-18T11:04:21;89.22;;;31.73;;
23310;SDS011;11828;51.508;18.118;2022-12-18T11:06:58;79.80;;;31.08;;
23310;SDS011;11828;51.508;18.118;2022-12-18T11:09:28;57.85;;;21.80;;
23310;SDS011;11828;51.508;18.118;2022-12-18T11:14:47;54.05;;;21.13;;
23310;SDS011;11828;51.508;18.118;2022-12-18T11:20:01;66.03;;;26.60;;
23310;SDS011;11828;51.508;18.118;2022-12-18T11:22:33;57.35;;;21.08;;
23310;SDS011;11828;51.508;18.118;2022-12-18T11:25:02;63.40;;;25.63;;
23310;SDS011;11828;51.508;18.118;2022-12-18T11:27:51;64.78;;;23.92;;
23310;SDS011;11828;51.508;18.118;2022-12-18T11:32:54;55.50;;;22.08;;
23310;SDS011;11828;51.508;18.118;2022-12-18T11:38:26;59.53;;;21.88;;
23310;SDS011;11828;51.508;18.118;2022-12-18T11:40:58;54.95;;;21.55;;
23310;SDS011;11828;51.508;18.118;2022-12-18T11:43:29;50.58;;;20.80;;
23310;SDS011;11828;51.508;18.118;2022-12-18T11:46:07;52.47;;;20.45;;
23310;SDS011;11828;51.508;18.118;2022-12-18T11:48:44;46.80;;;19.40;;
23310;SDS011;11828;51.508;18.118;2022-12-18T11:51:20;56.78;;;22.73;;
23310;SDS011;11828;51.508;18.118;2022-12-18T11:54:22;55.90;;;20.65;;
23310;SDS011;11828;51.508;18.118;2022-12-18T11:59:58;53.20;;;20.63;;
23310;SDS011;11828;51.508;18.118;2022-12-18T12:05:48;48.97;;;19.40;;
23310;SDS011;11828;51.508;18.118;2022-12-18T12:08:57;68.43;;;22.60;;
23310;SDS011;11828;51.508;18.118;2022-12-18T12:25:46;91.55;;;29.77;;
23310;SDS011;11828;51.508;18.118;2022-12-18T12:40:20;100.53;;;33.15;;
23310;SDS011;11828;51.508;18.118;2022-12-18T12:42:54;64.95;;;24.05;;
23310;SDS011;11828;51.508;18.118;2022-12-18T12:48:48;59.53;;;21.70;;
23310;SDS011;11828;51.508;18.118;2022-12-18T12:51:22;71.93;;;24.98;;
23310;SDS011;11828;51.508;18.118;2022-12-18T12:54:06;67.88;;;27.38;;
23310;SDS011;11828;51.508;18.118;2022-12-18T12:56:51;72.47;;;28.17;;
23310;SDS011;11828;51.508;18.118;2022-12-18T12:59:29;79.95;;;29.48;;
23310;SDS011;11828;51.508;18.118;2022-12-18T13:05:48;89.30;;;32.78;;
23310;SDS011;11828;51.508;18.118;2022-12-18T13:10:57;88.47;;;34.13;;
23310;SDS011;11828;51.508;18.118;2022-12-18T13:14:01;124.20;;;43.15;;
23310;SDS011;11828;51.508;18.118;2022-12-18T13:16:27;172.88;;;55.65;;
23310;SDS011;11828;51.508;18.118;2022-12-18T13:18:54;93.88;;;35.40;;
23310;SDS011;11828;51.508;18.118;2022-12-18T13:21:30;65.45;;;25.17;;
23310;SDS011;11828;51.508;18.118;2022-12-18T13:24:15;71.32;;;27.77;;
23310;SDS011;11828;51.508;18.118;2022-12-18T13:26:54;88.93;;;32.80;;
23310;SDS011;11828;51.508;18.118;2022-12-18T13:32:21;102.20;;;38.80;;
23310;SDS011;11828;51.508;18.118;2022-12-18T13:37:54;110.38;;;44.72;;
23310;SDS011;11828;51.508;18.118;2022-12-18T13:43:32;101.07;;;39.20;;
23310;SDS011;11828;51.508;18.118;2022-12-18T13:51:43;115.97;;;43.47;;
23310;SDS011;11828;51.508;18.118;2022-12-18T13:54:19;86.35;;;35.55;;
23310;SDS011;11828;51.508;18.118;2022-12-18T13:57:22;77.70;;;31.67;;
23310;SDS011;11828;51.508;18.118;2022-12-18T13:59:56;76.88;;;31.35;;
23310;SDS011;11828;51.508;18.118;2022-12-18T14:02:25;99.22;;;39.92;;
23310;SDS011;11828;51.508;18.118;2022-12-18T14:04:54;106.95;;;41.85;;
23310;SDS011;11828;51.508;18.118;2022-12-18T14:07:27;85.40;;;33.88;;
23310;SDS011;11828;51.508;18.118;2022-12-18T14:09:55;102.88;;;36.33;;
23310;SDS011;11828;51.508;18.118;2022-12-18T14:12:29;95.15;;;33.90;;
23310;SDS011;11828;51.508;18.118;2022-12-18T14:18:03;81.38;;;28.63;;
23310;SDS011;11828;51.508;18.118;2022-12-18T14:21:23;72.05;;;27.02;;
23310;SDS011;11828;51.508;18.118;2022-12-18T14:26:39;65.18;;;26.52;;
23310;SDS011;11828;51.508;18.118;2022-12-18T14:29:19;78.30;;;28.98;;
23310;SDS011;11828;51.508;18.118;2022-12-18T14:32:07;77.82;;;31.00;;
23310;SDS011;11828;51.508;18.118;2022-12-18T14:34:50;97.57;;;36.75;;
23310;SDS011;11828;51.508;18.118;2022-12-18T14:37:22;83.35;;;30.67;;
23310;SDS011;11828;51.508;18.118;2022-12-18T14:42:28;80.80;;;29.35;;
23310;SDS011;11828;51.508;18.118;2022-12-18T14:47:59;87.20;;;32.67;;
23310;SDS011;11828;51.508;18.118;2022-12-18T14:50:26;77.30;;;30.90;;
23310;SDS011;11828;51.508;18.118;2022-12-18T14:52:52;87.05;;;33.00;;
23310;SDS011;11828;51.508;18.118;2022-12-18T14:55:18;104.25;;;40.67;;
23310;SDS011;11828;51.508;18.118;2022-12-18T14:57:49;112.10;;;40.17;;
23310;SDS011;11828;51.508;18.118;2022-12-18T15:00:21;149.85;;;51.78;;
23310;SDS011;11828;51.508;18.118;2022-12-18T15:02:50;188.35;;;84.25;;
23310;SDS011;11828;51.508;18.118;2022-12-18T15:05:25;194.45;;;71.82;;
23310;SDS011;11828;51.508;18.118;2022-12-18T15:07:57;183.98;;;67.22;;
23310;SDS011;11828;51.508;18.118;2022-12-18T15:10:29;190.38;;;69.57;;
23310;SDS011;11828;51.508;18.118;2022-12-18T15:23:18;128.30;;;45.40;;
23310;SDS011;11828;51.508;18.118;2022-12-18T15:25:55;206.38;;;69.22;;
23310;SDS011;11828;51.508;18.118;2022-12-18T15:28:43;164.63;;;55.88;;
23310;SDS011;11828;51.508;18.118;2022-12-18T15:31:22;179.13;;;51.80;;
23310;SDS011;11828;51.508;18.118;2022-12-18T15:36:24;117.43;;;39.00;;
23310;SDS011;11828;51.508;18.118;2022-12-18T15:38:51;115.00;;;41.22;;
23310;SDS011;11828;51.508;18.118;2022-12-18T15:41:20;105.70;;;38.67;;
23310;SDS011;11828;51.508;18.118;2022-12-18T15:43:47;76.20;;;31.02;;
23310;SDS011;11828;51.508;18.118;2022-12-18T15:46:16;79.63;;;29.35;;
23310;SDS011;11828;51.508;18.118;2022-12-18T15:48:48;81.65;;;30.90;;
23310;SDS011;11828;51.508;18.118;2022-12-18T15:53:48;62.67;;;23.80;;
23310;SDS011;11828;51.508;18.118;2022-12-18T15:56:18;77.55;;;27.63;;
23310;SDS011;11828;51.508;18.118;2022-12-18T15:59:04;92.30;;;30.75;;
23310;SDS011;11828;51.508;18.118;2022-12-18T16:01:39;155.48;;;48.15;;
23310;SDS011;11828;51.508;18.118;2022-12-18T16:04:09;130.85;;;45.03;;
23310;SDS011;11828;51.508;18.118;2022-12-18T16:06:38;131.02;;;47.33;;
23310;SDS011;11828;51.508;18.118;2022-12-18T16:09:05;76.18;;;29.27;;
23310;SDS011;11828;51.508;18.118;2022-12-18T16:11:32;98.32;;;37.80;;
23310;SDS011;11828;51.508;18.118;2022-12-18T16:16:58;93.75;;;35.05;;
23310;SDS011;11828;51.508;18.118;2022-12-18T16:19:31;71.60;;;27.27;;
23310;SDS011;11828;51.508;18.118;2022-12-18T16:21:57;74.03;;;28.85;;
23310;SDS011;11828;51.508;18.118;2022-12-18T16:24:26;76.10;;;30.00;;
23310;SDS011;11828;51.508;18.118;2022-12-18T16:26:56;90.07;;;33.92;;
23310;SDS011;11828;51.508;18.118;2022-12-18T16:29:24;76.97;;;27.98;;
23310;SDS011;11828;51.508;18.118;2022-12-18T16:31:53;80.82;;;27.85;;
23310;SDS011;11828;51.508;18.118;2022-12-18T16:34:24;89.03;;;32.67;;
23310;SDS011;11828;51.508;18.118;2022-12-18T16:37:06;76.63;;;29.00;;
23310;SDS011;11828;51.508;18.118;2022-12-18T16:39:33;76.60;;;27.73;;
23310;SDS011;11828;51.508;18.118;2022-12-18T16:42:02;83.70;;;30.65;;
23310;SDS011;11828;51.508;18.118;2022-12-18T16:44:46;77.20;;;28.00;;
23310;SDS011;11828;51.508;18.118;2022-12-18T16:47:15;78.78;;;28.65;;
23310;SDS011;11828;51.508;18.118;2022-12-18T16:49:42;78.38;;;28.42;;
23310;SDS011;11828;51.508;18.118;2022-12-18T16:52:10;84.20;;;30.58;;
23310;SDS011;11828;51.508;18.118;2022-12-18T16:54:36;80.43;;;30.98;;
23310;SDS011;11828;51.508;18.118;2022-12-18T16:57:02;127.97;;;45.45;;
23310;SDS011;11828;51.508;18.118;2022-12-18T16:59:32;183.20;;;54.53;;
23310;SDS011;11828;51.508;18.118;2022-12-18T17:01:59;464.80;;;111.35;;
23310;SDS011;11828;51.508;18.118;2022-12-18T17:04:26;649.42;;;156.98;;